sensor_id;sensor_type;location;lat;lon;timestamp;pressure;altitude;pressure_sealevel;temperature;humidity
78685;BME280;68002;52.310;6.990;2023-05-16T00:01:43;101365.84;;;9.94;79.27
78685;BME280;68002;52.310;6.990;2023-05-16T00:04:08;101366.34;;;9.99;78.95
78685;BME280;68002;52.310;6.990;2023-05-16T00:06:33;101363.91;;;9.96;78.56
78685;BME280;68002;52.310;6.990;2023-05-16T00:08:58;101369.75;;;10.01;79.03
78685;BME280;68002;52.310;6.990;2023-05-16T00:11:23;101369.84;;;10.00;77.98
78685;BME280;68002;52.310;6.990;2023-05-16T00:13:49;101371.44;;;10.02;78.31
78685;BME280;68002;52.310;6.990;2023-05-16T00:16:14;101370.34;;;10.05;77.58
78685;BME280;68002;52.310;6.990;2023-05-16T00:18:39;101369.03;;;9.99;77.32
78685;BME280;68002;52.310;6.990;2023-05-16T00:21:05;101374.25;;;10.01;78.21
78685;BME280;68002;52.310;6.990;2023-05-16T00:23:30;101375.31;;;9.98;78.11
78685;BME280;68002;52.310;6.990;2023-05-16T00:25:56;101374.38;;;9.99;77.90
78685;BME280;68002;52.310;6.990;2023-05-16T00:28:21;101377.16;;;9.98;77.99
78685;BME280;68002;52.310;6.990;2023-05-16T00:30:47;101367.56;;;9.95;77.81
78685;BME280;68002;52.310;6.990;2023-05-16T00:33:12;101368.03;;;10.00;77.97
78685;BME280;68002;52.310;6.990;2023-05-16T00:35:37;101377.50;;;10.04;77.03
78685;BME280;68002;52.310;6.990;2023-05-16T00:38:02;101369.84;;;10.00;77.07
78685;BME280;68002;52.310;6.990;2023-05-16T00:40:27;101372.19;;;9.93;77.17
78685;BME280;68002;52.310;6.990;2023-05-16T00:42:53;101375.94;;;9.91;77.84
78685;BME280;68002;52.310;6.990;2023-05-16T00:45:18;101377.03;;;9.99;76.68
78685;BME280;68002;52.310;6.990;2023-05-16T00:47:43;101377.88;;;10.00;76.23
78685;BME280;68002;52.310;6.990;2023-05-16T00:50:09;101385.53;;;9.93;76.66
78685;BME280;68002;52.310;6.990;2023-05-16T00:52:34;101383.00;;;9.92;76.07
78685;BME280;68002;52.310;6.990;2023-05-16T00:54:59;101388.69;;;9.87;76.53
78685;BME280;68002;52.310;6.990;2023-05-16T00:57:24;101380.94;;;9.84;76.12
78685;BME280;68002;52.310;6.990;2023-05-16T00:59:50;101389.28;;;9.80;76.70
78685;BME280;68002;52.310;6.990;2023-05-16T01:02:15;101379.59;;;9.79;75.90
78685;BME280;68002;52.310;6.990;2023-05-16T01:04:42;101378.00;;;9.76;75.35
78685;BME280;68002;52.310;6.990;2023-05-16T01:07:07;101396.59;;;9.67;76.28
78685;BME280;68002;52.310;6.990;2023-05-16T01:09:33;101375.22;;;9.56;76.14
78685;BME280;68002;52.310;6.990;2023-05-16T01:12:22;101386.69;;;9.45;76.45
78685;BME280;68002;52.310;6.990;2023-05-16T01:15:01;101383.06;;;9.46;76.60
78685;BME280;68002;52.310;6.990;2023-05-16T01:22:52;101372.94;;;9.17;76.83
78685;BME280;68002;52.310;6.990;2023-05-16T01:25:55;101382.13;;;9.12;76.93
78685;BME280;68002;52.310;6.990;2023-05-16T01:28:21;101385.38;;;9.05;77.41
78685;BME280;68002;52.310;6.990;2023-05-16T01:30:46;101392.16;;;8.98;77.67
78685;BME280;68002;52.310;6.990;2023-05-16T01:33:12;101384.72;;;8.90;78.26
78685;BME280;68002;52.310;6.990;2023-05-16T01:36:05;101394.03;;;8.85;78.28
78685;BME280;68002;52.310;6.990;2023-05-16T01:38:55;101389.78;;;8.82;78.34
78685;BME280;68002;52.310;6.990;2023-05-16T01:41:45;101389.63;;;8.73;78.27
78685;BME280;68002;52.310;6.990;2023-05-16T01:46:47;101397.69;;;8.60;78.49
78685;BME280;68002;52.310;6.990;2023-05-16T01:49:25;101406.06;;;8.67;78.93
78685;BME280;68002;52.310;6.990;2023-05-16T01:51:54;101409.41;;;8.58;79.46
78685;BME280;68002;52.310;6.990;2023-05-16T01:54:24;101409.66;;;8.55;79.52
78685;BME280;68002;52.310;6.990;2023-05-16T01:56:53;101404.75;;;8.49;79.53
78685;BME280;68002;52.310;6.990;2023-05-16T01:59:21;101413.00;;;8.46;79.63
78685;BME280;68002;52.310;6.990;2023-05-16T02:01:47;101410.00;;;8.38;80.16
78685;BME280;68002;52.310;6.990;2023-05-16T02:04:12;101418.13;;;8.36;79.89
78685;BME280;68002;52.310;6.990;2023-05-16T02:06:38;101412.16;;;8.33;79.59
78685;BME280;68002;52.310;6.990;2023-05-16T02:09:03;101410.91;;;8.26;79.58
78685;BME280;68002;52.310;6.990;2023-05-16T02:11:28;101401.81;;;8.15;80.00
78685;BME280;68002;52.310;6.990;2023-05-16T02:13:53;101412.59;;;8.14;80.30
78685;BME280;68002;52.310;6.990;2023-05-16T02:16:19;101422.50;;;8.12;80.01
78685;BME280;68002;52.310;6.990;2023-05-16T02:18:44;101414.13;;;8.05;80.26
78685;BME280;68002;52.310;6.990;2023-05-16T02:21:09;101419.22;;;8.08;80.25
78685;BME280;68002;52.310;6.990;2023-05-16T02:23:34;101427.75;;;8.01;80.35
78685;BME280;68002;52.310;6.990;2023-05-16T02:25:59;101433.81;;;8.03;80.44
78685;BME280;68002;52.310;6.990;2023-05-16T02:28:25;101418.38;;;7.95;80.65
78685;BME280;68002;52.310;6.990;2023-05-16T02:30:57;101432.66;;;7.94;80.58
78685;BME280;68002;52.310;6.990;2023-05-16T02:33:22;101431.47;;;7.86;80.40
78685;BME280;68002;52.310;6.990;2023-05-16T02:35:47;101434.25;;;7.84;80.47
78685;BME280;68002;52.310;6.990;2023-05-16T02:38:12;101436.19;;;7.82;81.01
78685;BME280;68002;52.310;6.990;2023-05-16T02:40:38;101446.59;;;7.73;80.58
78685;BME280;68002;52.310;6.990;2023-05-16T02:43:03;101448.44;;;7.72;80.75
78685;BME280;68002;52.310;6.990;2023-05-16T02:45:28;101446.41;;;7.63;80.89
78685;BME280;68002;52.310;6.990;2023-05-16T02:47:53;101452.91;;;7.59;80.66
78685;BME280;68002;52.310;6.990;2023-05-16T02:50:18;101444.38;;;7.54;80.95
78685;BME280;68002;52.310;6.990;2023-05-16T02:52:44;101451.63;;;7.52;81.26
78685;BME280;68002;52.310;6.990;2023-05-16T02:55:09;101457.34;;;7.46;81.11
78685;BME280;68002;52.310;6.990;2023-05-16T02:57:34;101460.00;;;7.46;81.27
78685;BME280;68002;52.310;6.990;2023-05-16T02:59:59;101462.47;;;7.49;81.02
78685;BME280;68002;52.310;6.990;2023-05-16T03:02:24;101460.22;;;7.43;80.94
78685;BME280;68002;52.310;6.990;2023-05-16T03:04:50;101468.41;;;7.40;81.30
78685;BME280;68002;52.310;6.990;2023-05-16T03:07:15;101471.06;;;7.40;80.87
78685;BME280;68002;52.310;6.990;2023-05-16T03:09:40;101464.06;;;7.39;81.25
78685;BME280;68002;52.310;6.990;2023-05-16T03:12:05;101468.63;;;7.37;81.17
78685;BME280;68002;52.310;6.990;2023-05-16T03:14:31;101467.00;;;7.35;81.45
78685;BME280;68002;52.310;6.990;2023-05-16T03:16:56;101470.19;;;7.27;81.32
78685;BME280;68002;52.310;6.990;2023-05-16T03:19:21;101481.78;;;7.26;81.35
78685;BME280;68002;52.310;6.990;2023-05-16T03:21:46;101479.34;;;7.23;81.63
78685;BME280;68002;52.310;6.990;2023-05-16T03:24:12;101482.19;;;7.20;81.44
78685;BME280;68002;52.310;6.990;2023-05-16T03:26:37;101489.22;;;7.21;81.50
78685;BME280;68002;52.310;6.990;2023-05-16T03:29:02;101485.28;;;7.14;82.22
78685;BME280;68002;52.310;6.990;2023-05-16T03:31:27;101481.88;;;7.12;81.54
78685;BME280;68002;52.310;6.990;2023-05-16T03:33:52;101481.09;;;7.10;81.43
78685;BME280;68002;52.310;6.990;2023-05-16T03:36:20;101487.38;;;7.09;81.73
78685;BME280;68002;52.310;6.990;2023-05-16T03:38:46;101490.63;;;7.00;82.67
78685;BME280;68002;52.310;6.990;2023-05-16T03:41:11;101498.44;;;7.03;82.55
78685;BME280;68002;52.310;6.990;2023-05-16T03:43:36;101494.03;;;7.02;82.95
78685;BME280;68002;52.310;6.990;2023-05-16T03:46:01;101498.50;;;7.01;82.40
78685;BME280;68002;52.310;6.990;2023-05-16T03:48:26;101501.47;;;6.97;82.43
78685;BME280;68002;52.310;6.990;2023-05-16T03:50:52;101511.16;;;6.98;82.59
78685;BME280;68002;52.310;6.990;2023-05-16T03:53:17;101507.66;;;6.97;82.97
78685;BME280;68002;52.310;6.990;2023-05-16T03:55:42;101504.03;;;6.98;82.44
78685;BME280;68002;52.310;6.990;2023-05-16T03:58:07;101506.69;;;6.98;82.08
78685;BME280;68002;52.310;6.990;2023-05-16T04:00:33;101506.69;;;6.98;82.73
78685;BME280;68002;52.310;6.990;2023-05-16T04:02:58;101511.09;;;6.99;82.50
78685;BME280;68002;52.310;6.990;2023-05-16T04:05:23;101512.00;;;6.98;82.64
78685;BME280;68002;52.310;6.990;2023-05-16T04:07:48;101509.47;;;6.97;82.40
78685;BME280;68002;52.310;6.990;2023-05-16T04:10:13;101516.19;;;7.02;82.71
78685;BME280;68002;52.310;6.990;2023-05-16T04:12:39;101519.59;;;7.04;82.62
78685;BME280;68002;52.310;6.990;2023-05-16T04:15:05;101512.81;;;7.13;82.61
78685;BME280;68002;52.310;6.990;2023-05-16T04:17:30;101525.63;;;7.21;82.05
78685;BME280;68002;52.310;6.990;2023-05-16T04:19:56;101525.72;;;7.19;82.14
78685;BME280;68002;52.310;6.990;2023-05-16T04:22:21;101528.06;;;7.24;81.79
78685;BME280;68002;52.310;6.990;2023-05-16T04:24:46;101525.88;;;7.30;82.03
78685;BME280;68002;52.310;6.990;2023-05-16T04:27:12;101531.19;;;7.30;81.42
78685;BME280;68002;52.310;6.990;2023-05-16T04:29:37;101527.69;;;7.30;81.85
78685;BME280;68002;52.310;6.990;2023-05-16T04:32:02;101540.88;;;7.31;82.02
78685;BME280;68002;52.310;6.990;2023-05-16T04:34:28;101541.41;;;7.36;81.87
78685;BME280;68002;52.310;6.990;2023-05-16T04:36:53;101543.91;;;7.39;81.61
78685;BME280;68002;52.310;6.990;2023-05-16T04:39:18;101550.81;;;7.42;81.38
78685;BME280;68002;52.310;6.990;2023-05-16T04:41:44;101547.50;;;7.38;81.38
78685;BME280;68002;52.310;6.990;2023-05-16T04:44:09;101543.56;;;7.44;81.40
78685;BME280;68002;52.310;6.990;2023-05-16T04:46:34;101544.03;;;7.50;81.02
78685;BME280;68002;52.310;6.990;2023-05-16T04:48:59;101546.84;;;7.61;81.11
78685;BME280;68002;52.310;6.990;2023-05-16T04:51:24;101551.28;;;7.61;80.81
78685;BME280;68002;52.310;6.990;2023-05-16T04:53:50;101553.75;;;7.64;80.87
78685;BME280;68002;52.310;6.990;2023-05-16T04:56:15;101555.13;;;7.69;80.70
78685;BME280;68002;52.310;6.990;2023-05-16T04:58:40;101562.84;;;7.74;80.44
78685;BME280;68002;52.310;6.990;2023-05-16T05:01:05;101561.56;;;7.79;80.56
78685;BME280;68002;52.310;6.990;2023-05-16T05:03:31;101563.06;;;7.83;80.27
78685;BME280;68002;52.310;6.990;2023-05-16T05:05:56;101564.34;;;7.90;80.11
78685;BME280;68002;52.310;6.990;2023-05-16T05:08:21;101566.78;;;7.93;79.82
78685;BME280;68002;52.310;6.990;2023-05-16T05:10:47;101570.09;;;7.97;79.39
78685;BME280;68002;52.310;6.990;2023-05-16T05:13:12;101576.53;;;8.07;79.17
78685;BME280;68002;52.310;6.990;2023-05-16T05:15:37;101573.53;;;8.11;78.53
78685;BME280;68002;52.310;6.990;2023-05-16T05:18:02;101582.72;;;8.20;78.12
78685;BME280;68002;52.310;6.990;2023-05-16T05:20:28;101578.22;;;8.21;78.15
78685;BME280;68002;52.310;6.990;2023-05-16T05:22:53;101574.63;;;8.22;78.02
78685;BME280;68002;52.310;6.990;2023-05-16T05:25:18;101581.56;;;8.24;78.10
78685;BME280;68002;52.310;6.990;2023-05-16T05:27:43;101573.47;;;8.26;78.26
78685;BME280;68002;52.310;6.990;2023-05-16T05:30:09;101570.59;;;8.41;77.38
78685;BME280;68002;52.310;6.990;2023-05-16T05:32:34;101583.16;;;8.52;77.55
78685;BME280;68002;52.310;6.990;2023-05-16T05:34:59;101583.38;;;8.61;77.25
78685;BME280;68002;52.310;6.990;2023-05-16T05:37:25;101583.03;;;8.78;76.79
78685;BME280;68002;52.310;6.990;2023-05-16T05:39:50;101586.72;;;8.88;77.63
78685;BME280;68002;52.310;6.990;2023-05-16T05:42:16;101582.19;;;9.14;76.84
78685;BME280;68002;52.310;6.990;2023-05-16T05:44:41;101578.16;;;9.32;75.19
78685;BME280;68002;52.310;6.990;2023-05-16T05:47:06;101583.56;;;9.43;74.12
78685;BME280;68002;52.310;6.990;2023-05-16T05:49:32;101588.50;;;9.60;74.71
78685;BME280;68002;52.310;6.990;2023-05-16T05:51:58;101587.69;;;9.71;73.91
78685;BME280;68002;52.310;6.990;2023-05-16T05:54:23;101590.69;;;9.90;71.69
78685;BME280;68002;52.310;6.990;2023-05-16T05:56:49;101591.66;;;10.13;71.53
78685;BME280;68002;52.310;6.990;2023-05-16T05:59:14;101596.63;;;10.17;70.83
78685;BME280;68002;52.310;6.990;2023-05-16T06:01:39;101595.44;;;10.32;69.63
78685;BME280;68002;52.310;6.990;2023-05-16T06:04:05;101596.81;;;10.49;69.27
78685;BME280;68002;52.310;6.990;2023-05-16T06:06:30;101594.16;;;10.60;69.63
78685;BME280;68002;52.310;6.990;2023-05-16T06:08:56;101596.97;;;10.80;68.09
78685;BME280;68002;52.310;6.990;2023-05-16T06:11:21;101592.69;;;10.89;66.95
78685;BME280;68002;52.310;6.990;2023-05-16T06:13:47;101599.25;;;11.07;66.44
78685;BME280;68002;52.310;6.990;2023-05-16T06:16:12;101605.53;;;11.17;66.04
78685;BME280;68002;52.310;6.990;2023-05-16T06:18:37;101602.84;;;11.17;66.93
78685;BME280;68002;52.310;6.990;2023-05-16T06:21:03;101600.88;;;11.41;65.81
78685;BME280;68002;52.310;6.990;2023-05-16T06:23:29;101602.91;;;11.49;63.63
78685;BME280;68002;52.310;6.990;2023-05-16T06:25:54;101607.19;;;11.51;63.50
78685;BME280;68002;52.310;6.990;2023-05-16T06:28:19;101605.81;;;11.57;64.14
78685;BME280;68002;52.310;6.990;2023-05-16T06:30:44;101614.19;;;11.74;63.53
78685;BME280;68002;52.310;6.990;2023-05-16T06:33:09;101614.88;;;11.87;62.96
78685;BME280;68002;52.310;6.990;2023-05-16T06:35:35;101611.91;;;11.90;61.74
78685;BME280;68002;52.310;6.990;2023-05-16T06:38:00;101617.72;;;12.06;62.05
78685;BME280;68002;52.310;6.990;2023-05-16T06:40:25;101610.19;;;12.00;61.60
78685;BME280;68002;52.310;6.990;2023-05-16T06:42:50;101617.06;;;12.14;61.21
78685;BME280;68002;52.310;6.990;2023-05-16T06:45:16;101621.81;;;12.10;59.41
78685;BME280;68002;52.310;6.990;2023-05-16T06:47:41;101616.72;;;12.07;60.28
78685;BME280;68002;52.310;6.990;2023-05-16T06:50:07;101619.19;;;11.99;60.33
78685;BME280;68002;52.310;6.990;2023-05-16T06:52:32;101626.22;;;12.11;59.19
78685;BME280;68002;52.310;6.990;2023-05-16T06:54:57;101619.81;;;12.03;60.38
78685;BME280;68002;52.310;6.990;2023-05-16T06:57:22;101633.41;;;12.11;59.57
78685;BME280;68002;52.310;6.990;2023-05-16T06:59:48;101627.66;;;12.16;59.59
78685;BME280;68002;52.310;6.990;2023-05-16T07:02:13;101627.13;;;12.22;59.78
78685;BME280;68002;52.310;6.990;2023-05-16T07:04:38;101628.19;;;12.09;57.14
78685;BME280;68002;52.310;6.990;2023-05-16T07:07:03;101631.59;;;12.11;57.54
78685;BME280;68002;52.310;6.990;2023-05-16T07:09:29;101633.22;;;12.24;59.23
78685;BME280;68002;52.310;6.990;2023-05-16T07:11:54;101628.94;;;12.42;57.39
78685;BME280;68002;52.310;6.990;2023-05-16T07:14:19;101638.28;;;12.38;55.35
78685;BME280;68002;52.310;6.990;2023-05-16T07:16:45;101644.41;;;12.49;55.66
78685;BME280;68002;52.310;6.990;2023-05-16T07:19:10;101646.69;;;12.74;54.56
78685;BME280;68002;52.310;6.990;2023-05-16T07:21:35;101634.50;;;13.00;55.09
78685;BME280;68002;52.310;6.990;2023-05-16T07:24:00;101637.22;;;13.40;54.28
78685;BME280;68002;52.310;6.990;2023-05-16T07:26:26;101635.81;;;13.55;53.90
78685;BME280;68002;52.310;6.990;2023-05-16T07:28:51;101634.44;;;13.70;54.77
78685;BME280;68002;52.310;6.990;2023-05-16T07:31:17;101639.41;;;13.75;52.23
78685;BME280;68002;52.310;6.990;2023-05-16T07:33:43;101639.25;;;13.95;52.54
78685;BME280;68002;52.310;6.990;2023-05-16T07:36:09;101635.00;;;14.22;50.87
78685;BME280;68002;52.310;6.990;2023-05-16T07:38:34;101639.81;;;14.08;51.19
78685;BME280;68002;52.310;6.990;2023-05-16T07:41:00;101647.06;;;13.98;51.51
78685;BME280;68002;52.310;6.990;2023-05-16T07:43:25;101638.69;;;14.01;51.60
78685;BME280;68002;52.310;6.990;2023-05-16T07:45:50;101640.84;;;14.27;52.06
78685;BME280;68002;52.310;6.990;2023-05-16T07:48:15;101635.09;;;14.68;50.19
78685;BME280;68002;52.310;6.990;2023-05-16T07:50:42;101644.00;;;14.78;48.91
78685;BME280;68002;52.310;6.990;2023-05-16T07:53:07;101637.22;;;14.74;48.32
78685;BME280;68002;52.310;6.990;2023-05-16T07:55:32;101640.56;;;14.39;49.00
78685;BME280;68002;52.310;6.990;2023-05-16T07:57:58;101643.63;;;14.25;48.44
78685;BME280;68002;52.310;6.990;2023-05-16T08:00:23;101633.47;;;14.00;48.56
78685;BME280;68002;52.310;6.990;2023-05-16T08:02:48;101647.63;;;13.92;47.53
78685;BME280;68002;52.310;6.990;2023-05-16T08:05:13;101651.00;;;13.85;49.57
78685;BME280;68002;52.310;6.990;2023-05-16T08:07:39;101635.44;;;14.27;50.31
78685;BME280;68002;52.310;6.990;2023-05-16T08:10:04;101639.03;;;14.83;47.63
78685;BME280;68002;52.310;6.990;2023-05-16T08:12:30;101626.09;;;15.23;47.47
78685;BME280;68002;52.310;6.990;2023-05-16T08:14:55;101632.63;;;15.21;46.56
78685;BME280;68002;52.310;6.990;2023-05-16T08:17:21;101640.41;;;15.24;46.33
78685;BME280;68002;52.310;6.990;2023-05-16T08:19:46;101641.75;;;14.73;45.44
78685;BME280;68002;52.310;6.990;2023-05-16T08:22:11;101650.47;;;14.00;47.37
78685;BME280;68002;52.310;6.990;2023-05-16T08:24:37;101651.38;;;13.52;48.90
78685;BME280;68002;52.310;6.990;2023-05-16T08:27:02;101644.91;;;13.64;50.33
78685;BME280;68002;52.310;6.990;2023-05-16T08:29:27;101641.53;;;14.09;51.27
78685;BME280;68002;52.310;6.990;2023-05-16T08:31:52;101640.34;;;14.69;50.60
78685;BME280;68002;52.310;6.990;2023-05-16T08:34:18;101626.09;;;15.23;48.03
78685;BME280;68002;52.310;6.990;2023-05-16T08:36:43;101637.22;;;15.82;44.42
78685;BME280;68002;52.310;6.990;2023-05-16T08:39:08;101629.44;;;16.15;45.23
78685;BME280;68002;52.310;6.990;2023-05-16T08:41:33;101629.53;;;16.66;43.58
78685;BME280;68002;52.310;6.990;2023-05-16T08:43:59;101618.66;;;16.83;41.35
78685;BME280;68002;52.310;6.990;2023-05-16T08:46:24;101628.16;;;16.62;41.43
78685;BME280;68002;52.310;6.990;2023-05-16T08:48:52;101632.63;;;15.92;42.53
78685;BME280;68002;52.310;6.990;2023-05-16T08:51:19;101623.41;;;15.23;44.34
78685;BME280;68002;52.310;6.990;2023-05-16T08:54:08;101624.28;;;14.87;45.86
78685;BME280;68002;52.310;6.990;2023-05-16T08:56:35;101631.69;;;15.12;48.70
78685;BME280;68002;52.310;6.990;2023-05-16T08:59:01;101636.56;;;15.53;47.58
78685;BME280;68002;52.310;6.990;2023-05-16T09:01:27;101634.25;;;15.85;45.23
78685;BME280;68002;52.310;6.990;2023-05-16T09:03:54;101627.88;;;15.77;44.79
78685;BME280;68002;52.310;6.990;2023-05-16T09:06:19;101632.78;;;15.91;46.08
78685;BME280;68002;52.310;6.990;2023-05-16T09:08:44;101628.78;;;16.56;43.43
78685;BME280;68002;52.310;6.990;2023-05-16T09:11:10;101627.44;;;16.60;42.05
78685;BME280;68002;52.310;6.990;2023-05-16T09:13:37;101629.63;;;16.82;41.71
78685;BME280;68002;52.310;6.990;2023-05-16T09:16:32;101625.09;;;17.24;41.40
78685;BME280;68002;52.310;6.990;2023-05-16T09:18:58;101607.81;;;17.51;39.32
78685;BME280;68002;52.310;6.990;2023-05-16T09:21:28;101637.16;;;17.95;36.09
78685;BME280;68002;52.310;6.990;2023-05-16T09:23:54;101630.41;;;18.24;36.92
78685;BME280;68002;52.310;6.990;2023-05-16T09:26:19;101643.28;;;17.14;38.34
78685;BME280;68002;52.310;6.990;2023-05-16T09:28:44;101648.41;;;16.23;40.63
78685;BME280;68002;52.310;6.990;2023-05-16T09:31:20;101643.78;;;15.97;42.82
78685;BME280;68002;52.310;6.990;2023-05-16T09:33:45;101651.63;;;16.26;44.73
78685;BME280;68002;52.310;6.990;2023-05-16T09:36:11;101639.06;;;16.52;43.78
78685;BME280;68002;52.310;6.990;2023-05-16T09:38:36;101633.09;;;17.00;40.12
78685;BME280;68002;52.310;6.990;2023-05-16T09:41:01;101622.81;;;17.03;39.76
78685;BME280;68002;52.310;6.990;2023-05-16T09:43:27;101635.84;;;17.08;39.84
78685;BME280;68002;52.310;6.990;2023-05-16T09:45:52;101628.16;;;17.29;36.31
78685;BME280;68002;52.310;6.990;2023-05-16T09:48:20;101628.69;;;17.33;36.64
78685;BME280;68002;52.310;6.990;2023-05-16T09:50:47;101623.22;;;17.58;35.92
78685;BME280;68002;52.310;6.990;2023-05-16T09:53:13;101616.13;;;17.65;36.79
78685;BME280;68002;52.310;6.990;2023-05-16T09:55:38;101619.16;;;17.54;36.14
78685;BME280;68002;52.310;6.990;2023-05-16T09:58:03;101618.06;;;17.39;36.38
78685;BME280;68002;52.310;6.990;2023-05-16T10:00:30;101624.63;;;17.70;37.51
78685;BME280;68002;52.310;6.990;2023-05-16T10:02:56;101631.75;;;17.95;37.97
78685;BME280;68002;52.310;6.990;2023-05-16T10:05:25;101620.06;;;18.35;34.54
78685;BME280;68002;52.310;6.990;2023-05-16T10:07:52;101606.88;;;18.48;34.19
78685;BME280;68002;52.310;6.990;2023-05-16T10:10:19;101621.28;;;18.33;33.89
78685;BME280;68002;52.310;6.990;2023-05-16T10:12:44;101626.28;;;17.71;34.71
78685;BME280;68002;52.310;6.990;2023-05-16T10:15:10;101647.31;;;16.76;37.12
78685;BME280;68002;52.310;6.990;2023-05-16T10:17:39;101650.91;;;15.98;38.93
78685;BME280;68002;52.310;6.990;2023-05-16T10:20:06;101652.22;;;15.50;41.53
78685;BME280;68002;52.310;6.990;2023-05-16T10:22:33;101665.34;;;14.98;43.67
78685;BME280;68002;52.310;6.990;2023-05-16T10:25:19;101673.81;;;14.57;46.90
78685;BME280;68002;52.310;6.990;2023-05-16T10:27:49;101659.56;;;14.28;47.99
78685;BME280;68002;52.310;6.990;2023-05-16T10:30:16;101670.69;;;14.52;49.47
78685;BME280;68002;52.310;6.990;2023-05-16T10:32:42;101661.97;;;15.24;48.91
78685;BME280;68002;52.310;6.990;2023-05-16T10:35:08;101652.84;;;15.61;47.18
78685;BME280;68002;52.310;6.990;2023-05-16T10:37:34;101659.72;;;15.56;46.36
78685;BME280;68002;52.310;6.990;2023-05-16T10:40:01;101653.50;;;15.90;45.05
78685;BME280;68002;52.310;6.990;2023-05-16T10:42:27;101652.66;;;16.25;43.72
78685;BME280;68002;52.310;6.990;2023-05-16T10:45:08;101644.25;;;16.71;43.73
78685;BME280;68002;52.310;6.990;2023-05-16T10:47:33;101624.59;;;17.21;43.47
78685;BME280;68002;52.310;6.990;2023-05-16T10:49:59;101627.53;;;18.01;41.65
78685;BME280;68002;52.310;6.990;2023-05-16T10:52:32;101624.97;;;18.32;38.54
78685;BME280;68002;52.310;6.990;2023-05-16T10:55:01;101614.81;;;18.34;37.31
78685;BME280;68002;52.310;6.990;2023-05-16T10:57:27;101619.25;;;18.27;38.24
78685;BME280;68002;52.310;6.990;2023-05-16T10:59:52;101613.09;;;18.81;37.72
78685;BME280;68002;52.310;6.990;2023-05-16T11:04:48;101613.00;;;19.05;35.41
78685;BME280;68002;52.310;6.990;2023-05-16T11:07:16;101608.50;;;19.36;34.33
78685;BME280;68002;52.310;6.990;2023-05-16T11:09:44;101600.66;;;19.41;34.36
78685;BME280;68002;52.310;6.990;2023-05-16T11:12:10;101594.53;;;19.47;33.59
78685;BME280;68002;52.310;6.990;2023-05-16T11:14:40;101610.34;;;18.97;32.87
78685;BME280;68002;52.310;6.990;2023-05-16T11:17:13;101600.78;;;18.22;33.94
78685;BME280;68002;52.310;6.990;2023-05-16T11:24:52;101633.66;;;16.17;37.88
78685;BME280;68002;52.310;6.990;2023-05-16T11:27:31;101628.81;;;15.68;39.45
78685;BME280;68002;52.310;6.990;2023-05-16T11:30:11;101622.28;;;15.53;40.84
78685;BME280;68002;52.310;6.990;2023-05-16T11:32:38;101604.16;;;15.45;40.67
78685;BME280;68002;52.310;6.990;2023-05-16T11:35:04;101622.03;;;15.99;40.47
78685;BME280;68002;52.310;6.990;2023-05-16T11:37:30;101621.88;;;16.61;36.94
78685;BME280;68002;52.310;6.990;2023-05-16T11:40:02;101621.53;;;17.16;34.62
78685;BME280;68002;52.310;6.990;2023-05-16T11:42:29;101627.19;;;17.38;32.97
78685;BME280;68002;52.310;6.990;2023-05-16T11:47:35;101624.84;;;18.41;33.14
78685;BME280;68002;52.310;6.990;2023-05-16T11:50:04;101627.06;;;18.46;33.19
78685;BME280;68002;52.310;6.990;2023-05-16T11:52:30;101620.97;;;18.44;31.85
78685;BME280;68002;52.310;6.990;2023-05-16T11:54:55;101607.72;;;18.17;33.03
78685;BME280;68002;52.310;6.990;2023-05-16T11:57:20;101620.28;;;18.42;33.19
78685;BME280;68002;52.310;6.990;2023-05-16T11:59:45;101621.75;;;18.68;31.67
78685;BME280;68002;52.310;6.990;2023-05-16T12:02:11;101617.88;;;18.23;33.51
78685;BME280;68002;52.310;6.990;2023-05-16T12:04:36;101618.31;;;17.54;35.75
78685;BME280;68002;52.310;6.990;2023-05-16T12:07:01;101631.53;;;16.89;37.57
78685;BME280;68002;52.310;6.990;2023-05-16T12:09:26;101631.66;;;16.37;38.81
78685;BME280;68002;52.310;6.990;2023-05-16T12:11:52;101633.03;;;16.41;39.64
78685;BME280;68002;52.310;6.990;2023-05-16T12:14:17;101631.28;;;16.75;40.24
78685;BME280;68002;52.310;6.990;2023-05-16T12:16:44;101607.16;;;17.15;39.43
78685;BME280;68002;52.310;6.990;2023-05-16T12:19:10;101621.38;;;17.75;38.08
78685;BME280;68002;52.310;6.990;2023-05-16T12:21:37;101619.41;;;18.25;36.53
78685;BME280;68002;52.310;6.990;2023-05-16T12:24:02;101622.28;;;18.16;34.16
78685;BME280;68002;52.310;6.990;2023-05-16T12:26:29;101635.50;;;18.43;35.64
78685;BME280;68002;52.310;6.990;2023-05-16T12:29:01;101617.88;;;18.23;33.61
78685;BME280;68002;52.310;6.990;2023-05-16T12:31:28;101621.09;;;18.02;34.73
78685;BME280;68002;52.310;6.990;2023-05-16T12:33:53;101620.59;;;17.41;35.25
78685;BME280;68002;52.310;6.990;2023-05-16T12:36:18;101630.84;;;17.29;36.80
78685;BME280;68002;52.310;6.990;2023-05-16T12:38:47;101628.69;;;17.90;36.92
78685;BME280;68002;52.310;6.990;2023-05-16T12:41:21;101628.84;;;18.77;36.22
78685;BME280;68002;52.310;6.990;2023-05-16T12:43:49;101623.50;;;19.55;35.58
78685;BME280;68002;52.310;6.990;2023-05-16T12:46:15;101618.91;;;19.86;32.66
78685;BME280;68002;52.310;6.990;2023-05-16T12:48:40;101618.00;;;19.93;32.84
78685;BME280;68002;52.310;6.990;2023-05-16T12:51:10;101619.19;;;19.68;32.61
78685;BME280;68002;52.310;6.990;2023-05-16T12:53:40;101618.72;;;19.18;32.07
78685;BME280;68002;52.310;6.990;2023-05-16T12:56:06;101627.88;;;18.54;31.92
78685;BME280;68002;52.310;6.990;2023-05-16T12:58:31;101634.94;;;17.91;33.02
78685;BME280;68002;52.310;6.990;2023-05-16T13:00:57;101644.19;;;17.23;34.03
78685;BME280;68002;52.310;6.990;2023-05-16T13:03:22;101651.78;;;16.60;36.14
78685;BME280;68002;52.310;6.990;2023-05-16T13:05:47;101661.03;;;16.40;37.75
78685;BME280;68002;52.310;6.990;2023-05-16T13:08:12;101658.13;;;16.16;40.05
78685;BME280;68002;52.310;6.990;2023-05-16T13:10:37;101664.53;;;16.15;39.99